sensor_id;sensor_type;location;lat;lon;timestamp;pressure;altitude;pressure_sealevel;temperature;humidity
73842;BME280;62184;52.006;5.924;2023-06-26T00:00:04;100429.41;;;30.00;36.93
73842;BME280;62184;52.006;5.924;2023-06-26T00:02:32;100421.16;;;29.92;37.00
73842;BME280;62184;52.006;5.924;2023-06-26T00:04:58;100419.97;;;29.86;37.68
73842;BME280;62184;52.006;5.924;2023-06-26T00:07:25;100421.16;;;29.84;37.86
73842;BME280;62184;52.006;5.924;2023-06-26T00:09:51;100420.28;;;29.83;37.44
73842;BME280;62184;52.006;5.924;2023-06-26T00:12:21;100424.06;;;29.82;37.60
73842;BME280;62184;52.006;5.924;2023-06-26T00:14:47;100413.75;;;29.76;37.85
73842;BME280;62184;52.006;5.924;2023-06-26T00:17:14;100410.31;;;29.74;38.25
73842;BME280;62184;52.006;5.924;2023-06-26T00:19:40;100407.91;;;29.71;37.85
73842;BME280;62184;52.006;5.924;2023-06-26T00:22:07;100411.34;;;29.65;37.88
73842;BME280;62184;52.006;5.924;2023-06-26T00:24:33;100400.16;;;29.59;37.96
73842;BME280;62184;52.006;5.924;2023-06-26T00:27:00;100398.28;;;29.59;38.04
73842;BME280;62184;52.006;5.924;2023-06-26T00:29:29;100400.16;;;29.59;38.21
73842;BME280;62184;52.006;5.924;2023-06-26T00:31:55;100394.44;;;29.44;38.59
73842;BME280;62184;52.006;5.924;2023-06-26T00:34:22;100389.63;;;29.38;38.46
73842;BME280;62184;52.006;5.924;2023-06-26T00:36:48;100388.06;;;29.35;38.04
73842;BME280;62184;52.006;5.924;2023-06-26T00:39:15;100382.41;;;29.29;38.42
73842;BME280;62184;52.006;5.924;2023-06-26T00:41:41;100381.00;;;29.25;38.62
73842;BME280;62184;52.006;5.924;2023-06-26T00:44:08;100374.81;;;29.23;39.03
73842;BME280;62184;52.006;5.924;2023-06-26T00:46:37;100379.63;;;29.21;39.12
73842;BME280;62184;52.006;5.924;2023-06-26T00:49:04;100370.84;;;29.17;38.78
73842;BME280;62184;52.006;5.924;2023-06-26T00:51:31;100384.06;;;29.13;39.09
73842;BME280;62184;52.006;5.924;2023-06-26T00:53:58;100383.88;;;29.07;39.22
73842;BME280;62184;52.006;5.924;2023-06-26T00:56:24;100389.22;;;29.00;39.41
73842;BME280;62184;52.006;5.924;2023-06-26T00:58:52;100386.97;;;28.96;39.69
73842;BME280;62184;52.006;5.924;2023-06-26T01:01:18;100387.25;;;28.93;39.45
73842;BME280;62184;52.006;5.924;2023-06-26T01:03:48;100378.16;;;28.92;39.53
73842;BME280;62184;52.006;5.924;2023-06-26T01:06:16;100384.84;;;28.90;39.34
73842;BME280;62184;52.006;5.924;2023-06-26T01:08:44;100388.13;;;28.93;39.77
73842;BME280;62184;52.006;5.924;2023-06-26T01:11:12;100381.97;;;28.99;39.29
73842;BME280;62184;52.006;5.924;2023-06-26T01:13:41;100376.47;;;28.99;39.29
73842;BME280;62184;52.006;5.924;2023-06-26T01:16:09;100379.41;;;28.98;39.30
73842;BME280;62184;52.006;5.924;2023-06-26T01:18:38;100371.84;;;29.00;39.52
73842;BME280;62184;52.006;5.924;2023-06-26T01:21:09;100372.53;;;29.02;39.29
73842;BME280;62184;52.006;5.924;2023-06-26T01:23:44;100373.25;;;29.04;39.26
73842;BME280;62184;52.006;5.924;2023-06-26T01:26:27;100377.53;;;29.06;39.37
73842;BME280;62184;52.006;5.924;2023-06-26T01:28:57;100369.81;;;29.10;39.23
73842;BME280;62184;52.006;5.924;2023-06-26T01:31:27;100366.91;;;29.11;39.45
73842;BME280;62184;52.006;5.924;2023-06-26T01:33:55;100363.44;;;29.09;39.40
73842;BME280;62184;52.006;5.924;2023-06-26T01:36:23;100365.84;;;29.04;39.42
73842;BME280;62184;52.006;5.924;2023-06-26T01:38:49;100364.28;;;29.02;39.72
73842;BME280;62184;52.006;5.924;2023-06-26T01:41:16;100370.28;;;28.97;40.14
73842;BME280;62184;52.006;5.924;2023-06-26T01:44:00;100379.19;;;28.91;40.19
73842;BME280;62184;52.006;5.924;2023-06-26T01:46:38;100390.31;;;28.81;40.62
73842;BME280;62184;52.006;5.924;2023-06-26T01:49:13;100390.44;;;28.72;40.40
73842;BME280;62184;52.006;5.924;2023-06-26T01:51:55;100383.38;;;28.61;40.97
73842;BME280;62184;52.006;5.924;2023-06-26T01:54:30;100388.06;;;28.77;40.32
73842;BME280;62184;52.006;5.924;2023-06-26T01:57:04;100386.34;;;28.76;40.48
73842;BME280;62184;52.006;5.924;2023-06-26T01:59:37;100386.88;;;28.79;40.25
73842;BME280;62184;52.006;5.924;2023-06-26T02:02:07;100394.44;;;28.77;40.48
73842;BME280;62184;52.006;5.924;2023-06-26T02:04:33;100397.44;;;28.58;40.50
73842;BME280;62184;52.006;5.924;2023-06-26T02:07:00;100400.31;;;28.49;40.39
73842;BME280;62184;52.006;5.924;2023-06-26T02:09:26;100409.22;;;28.42;40.68
73842;BME280;62184;52.006;5.924;2023-06-26T02:11:53;100403.06;;;28.49;40.38
73842;BME280;62184;52.006;5.924;2023-06-26T02:14:19;100408.50;;;28.40;40.35
73842;BME280;62184;52.006;5.924;2023-06-26T02:16:49;100409.97;;;28.27;40.55
73842;BME280;62184;52.006;5.924;2023-06-26T02:19:15;100410.44;;;28.22;40.59
73842;BME280;62184;52.006;5.924;2023-06-26T02:21:42;100416.56;;;28.16;40.90
73842;BME280;62184;52.006;5.924;2023-06-26T02:24:08;100413.78;;;28.08;40.73
73842;BME280;62184;52.006;5.924;2023-06-26T02:26:35;100403.22;;;28.21;40.14
73842;BME280;62184;52.006;5.924;2023-06-26T02:29:01;100408.66;;;28.13;40.44
73842;BME280;62184;52.006;5.924;2023-06-26T02:31:28;100398.16;;;28.09;40.60
73842;BME280;62184;52.006;5.924;2023-06-26T02:33:57;100407.97;;;27.85;41.15
73842;BME280;62184;52.006;5.924;2023-06-26T02:36:23;100415.31;;;27.67;40.99
73842;BME280;62184;52.006;5.924;2023-06-26T02:38:50;100402.84;;;27.73;41.39
73842;BME280;62184;52.006;5.924;2023-06-26T02:41:16;100401.97;;;27.72;41.17
73842;BME280;62184;52.006;5.924;2023-06-26T02:43:43;100408.25;;;27.64;41.46
73842;BME280;62184;52.006;5.924;2023-06-26T02:46:09;100416.50;;;27.64;41.60
73842;BME280;62184;52.006;5.924;2023-06-26T02:48:35;100424.00;;;27.62;41.74
73842;BME280;62184;52.006;5.924;2023-06-26T02:51:05;100418.84;;;27.59;41.36
73842;BME280;62184;52.006;5.924;2023-06-26T02:53:31;100429.69;;;27.43;42.20
73842;BME280;62184;52.006;5.924;2023-06-26T02:55:58;100425.44;;;27.31;42.23
73842;BME280;62184;52.006;5.924;2023-06-26T02:58:24;100423.31;;;27.25;42.27
73842;BME280;62184;52.006;5.924;2023-06-26T03:00:51;100436.78;;;27.18;42.50
73842;BME280;62184;52.006;5.924;2023-06-26T03:03:17;100430.00;;;27.13;42.66
73842;BME280;62184;52.006;5.924;2023-06-26T03:05:44;100432.50;;;27.06;42.73
73842;BME280;62184;52.006;5.924;2023-06-26T03:08:13;100442.59;;;27.06;42.77
73842;BME280;62184;52.006;5.924;2023-06-26T03:10:40;100443.16;;;27.09;42.78
73842;BME280;62184;52.006;5.924;2023-06-26T03:13:06;100450.44;;;27.01;43.16
73842;BME280;62184;52.006;5.924;2023-06-26T03:15:33;100441.78;;;26.95;43.38
73842;BME280;62184;52.006;5.924;2023-06-26T03:17:59;100447.28;;;26.95;43.49
73842;BME280;62184;52.006;5.924;2023-06-26T03:20:26;100446.16;;;26.88;43.63
73842;BME280;62184;52.006;5.924;2023-06-26T03:22:53;100453.69;;;26.86;43.88
73842;BME280;62184;52.006;5.924;2023-06-26T03:25:22;100443.91;;;26.84;44.21
73842;BME280;62184;52.006;5.924;2023-06-26T03:27:48;100449.38;;;26.84;44.41
73842;BME280;62184;52.006;5.924;2023-06-26T03:30:15;100455.41;;;26.87;44.14
73842;BME280;62184;52.006;5.924;2023-06-26T03:32:41;100453.69;;;26.86;44.01
73842;BME280;62184;52.006;5.924;2023-06-26T03:35:08;100459.63;;;26.82;44.40
73842;BME280;62184;52.006;5.924;2023-06-26T03:37:34;100457.16;;;26.79;44.44
73842;BME280;62184;52.006;5.924;2023-06-26T03:40:01;100461.81;;;26.78;44.65
73842;BME280;62184;52.006;5.924;2023-06-26T03:42:30;100452.56;;;26.79;44.78
73842;BME280;62184;52.006;5.924;2023-06-26T03:44:56;100455.63;;;26.76;44.61
73842;BME280;62184;52.006;5.924;2023-06-26T03:47:23;100446.56;;;26.66;44.79
73842;BME280;62184;52.006;5.924;2023-06-26T03:49:49;100440.84;;;26.60;45.22
73842;BME280;62184;52.006;5.924;2023-06-26T03:52:16;100444.44;;;26.60;45.03
73842;BME280;62184;52.006;5.924;2023-06-26T03:54:42;100445.59;;;26.58;45.05
73842;BME280;62184;52.006;5.924;2023-06-26T03:57:09;100443.72;;;26.58;45.43
73842;BME280;62184;52.006;5.924;2023-06-26T03:59:38;100444.00;;;26.55;45.42
73842;BME280;62184;52.006;5.924;2023-06-26T04:02:05;100455.97;;;26.54;45.59
73842;BME280;62184;52.006;5.924;2023-06-26T04:04:31;100460.88;;;26.50;45.48
73842;BME280;62184;52.006;5.924;2023-06-26T04:06:58;100459.00;;;26.51;45.61
73842;BME280;62184;52.006;5.924;2023-06-26T04:09:24;100453.53;;;26.51;45.67
73842;BME280;62184;52.006;5.924;2023-06-26T04:11:51;100453.66;;;26.49;45.62
73842;BME280;62184;52.006;5.924;2023-06-26T04:14:18;100456.88;;;26.45;46.00
73842;BME280;62184;52.006;5.924;2023-06-26T04:16:47;100476.34;;;26.42;45.89
73842;BME280;62184;52.006;5.924;2023-06-26T04:19:13;100480.09;;;26.41;46.49
73842;BME280;62184;52.006;5.924;2023-06-26T04:21:40;100479.50;;;26.37;46.12
73842;BME280;62184;52.006;5.924;2023-06-26T04:24:06;100475.63;;;26.40;46.78
73842;BME280;62184;52.006;5.924;2023-06-26T04:26:33;100485.69;;;26.49;46.73
73842;BME280;62184;52.006;5.924;2023-06-26T04:28:59;100480.50;;;26.55;46.58
73842;BME280;62184;52.006;5.924;2023-06-26T04:31:26;100493.91;;;26.59;46.35
73842;BME280;62184;52.006;5.924;2023-06-26T04:33:55;100506.00;;;26.56;46.28
73842;BME280;62184;52.006;5.924;2023-06-26T04:36:22;100497.34;;;26.51;46.09
73842;BME280;62184;52.006;5.924;2023-06-26T04:38:49;100499.09;;;26.52;46.56
73842;BME280;62184;52.006;5.924;2023-06-26T04:41:15;100489.44;;;26.48;46.61
73842;BME280;62184;52.006;5.924;2023-06-26T04:43:42;100490.44;;;26.47;46.82
73842;BME280;62184;52.006;5.924;2023-06-26T04:46:08;100497.09;;;26.44;46.90
73842;BME280;62184;52.006;5.924;2023-06-26T04:48:35;100505.75;;;26.40;46.64
73842;BME280;62184;52.006;5.924;2023-06-26T04:51:04;100498.38;;;26.40;46.90
73842;BME280;62184;52.006;5.924;2023-06-26T04:53:30;100502.84;;;26.41;47.22
73842;BME280;62184;52.006;5.924;2023-06-26T04:55:57;100511.47;;;26.46;47.01
73842;BME280;62184;52.006;5.924;2023-06-26T04:58:23;100508.63;;;26.38;46.81
73842;BME280;62184;52.006;5.924;2023-06-26T05:00:50;100511.38;;;26.29;47.48
73842;BME280;62184;52.006;5.924;2023-06-26T05:03:17;100509.69;;;26.28;47.16
73842;BME280;62184;52.006;5.924;2023-06-26T05:05:44;100508.94;;;26.35;47.15
73842;BME280;62184;52.006;5.924;2023-06-26T05:08:17;100513.69;;;26.43;47.16
73842;BME280;62184;52.006;5.924;2023-06-26T05:10:44;100520.13;;;26.51;46.95
73842;BME280;62184;52.006;5.924;2023-06-26T05:13:11;100525.34;;;26.54;46.99
73842;BME280;62184;52.006;5.924;2023-06-26T05:15:38;100528.19;;;26.63;47.05
73842;BME280;62184;52.006;5.924;2023-06-26T05:18:04;100519.84;;;26.64;46.36
73842;BME280;62184;52.006;5.924;2023-06-26T05:20:31;100525.03;;;26.67;46.68
73842;BME280;62184;52.006;5.924;2023-06-26T05:22:58;100526.75;;;26.68;46.42
73842;BME280;62184;52.006;5.924;2023-06-26T05:25:29;100523.16;;;26.68;46.76
73842;BME280;62184;52.006;5.924;2023-06-26T05:27:57;100528.78;;;26.66;46.14
73842;BME280;62184;52.006;5.924;2023-06-26T05:30:25;100535.97;;;26.67;46.33
73842;BME280;62184;52.006;5.924;2023-06-26T05:32:53;100544.03;;;26.78;46.13
73842;BME280;62184;52.006;5.924;2023-06-26T05:35:21;100561.31;;;26.79;46.23
73842;BME280;62184;52.006;5.924;2023-06-26T05:37:49;100570.94;;;26.92;46.05
73842;BME280;62184;52.006;5.924;2023-06-26T05:40:17;100565.53;;;27.10;45.43
73842;BME280;62184;52.006;5.924;2023-06-26T05:42:48;100559.97;;;27.29;45.16
73842;BME280;62184;52.006;5.924;2023-06-26T05:45:16;100562.81;;;27.38;45.06
73842;BME280;62184;52.006;5.924;2023-06-26T05:47:42;100566.44;;;27.38;44.31
73842;BME280;62184;52.006;5.924;2023-06-26T05:50:10;100580.88;;;27.40;44.54
73842;BME280;62184;52.006;5.924;2023-06-26T05:52:38;100578.75;;;27.34;43.98
73842;BME280;62184;52.006;5.924;2023-06-26T05:55:06;100581.91;;;27.29;44.22
73842;BME280;62184;52.006;5.924;2023-06-26T05:57:35;100583.81;;;27.29;43.89
73842;BME280;62184;52.006;5.924;2023-06-26T06:00:07;100585.38;;;27.31;43.48
73842;BME280;62184;52.006;5.924;2023-06-26T06:02:34;100606.50;;;27.21;43.27
73842;BME280;62184;52.006;5.924;2023-06-26T06:05:01;100597.59;;;27.19;43.20
73842;BME280;62184;52.006;5.924;2023-06-26T06:07:27;100607.50;;;27.20;42.94
73842;BME280;62184;52.006;5.924;2023-06-26T06:09:54;100599.13;;;27.22;42.62
73842;BME280;62184;52.006;5.924;2023-06-26T06:12:20;100605.59;;;27.30;42.58
73842;BME280;62184;52.006;5.924;2023-06-26T06:14:47;100610.16;;;27.40;42.00
73842;BME280;62184;52.006;5.924;2023-06-26T06:17:16;100612.47;;;27.44;41.53
73842;BME280;62184;52.006;5.924;2023-06-26T06:19:43;100611.47;;;27.45;41.43
73842;BME280;62184;52.006;5.924;2023-06-26T06:22:09;100616.81;;;27.37;41.09
73842;BME280;62184;52.006;5.924;2023-06-26T06:24:36;100628.41;;;27.31;41.52
73842;BME280;62184;52.006;5.924;2023-06-26T06:27:03;100630.13;;;27.32;41.30
73842;BME280;62184;52.006;5.924;2023-06-26T06:29:29;100641.38;;;27.39;40.92
73842;BME280;62184;52.006;5.924;2023-06-26T06:31:56;100635.44;;;27.43;40.69
73842;BME280;62184;52.006;5.924;2023-06-26T06:34:25;100647.81;;;27.47;40.44
73842;BME280;62184;52.006;5.924;2023-06-26T06:36:52;100642.03;;;27.50;40.87
73842;BME280;62184;52.006;5.924;2023-06-26T06:39:18;100647.06;;;27.55;40.30
73842;BME280;62184;52.006;5.924;2023-06-26T06:41:45;100655.16;;;27.56;39.96
73842;BME280;62184;52.006;5.924;2023-06-26T06:44:11;100661.94;;;27.62;40.26
73842;BME280;62184;52.006;5.924;2023-06-26T06:46:37;100656.13;;;27.65;39.59
73842;BME280;62184;52.006;5.924;2023-06-26T06:49:04;100652.72;;;27.81;39.96
73842;BME280;62184;52.006;5.924;2023-06-26T06:51:33;100647.44;;;27.97;39.38
73842;BME280;62184;52.006;5.924;2023-06-26T06:54:00;100662.53;;;28.11;38.93
73842;BME280;62184;52.006;5.924;2023-06-26T06:56:26;100668.25;;;28.17;38.86
73842;BME280;62184;52.006;5.924;2023-06-26T06:58:52;100671.09;;;28.25;38.91
73842;BME280;62184;52.006;5.924;2023-06-26T07:01:19;100680.53;;;28.40;38.45
73842;BME280;62184;52.006;5.924;2023-06-26T07:03:46;100681.31;;;28.51;38.52
73842;BME280;62184;52.006;5.924;2023-06-26T07:06:12;100686.03;;;28.58;38.03
73842;BME280;62184;52.006;5.924;2023-06-26T07:08:41;100692.63;;;28.65;38.40
73842;BME280;62184;52.006;5.924;2023-06-26T07:11:08;100682.72;;;28.72;37.76
73842;BME280;62184;52.006;5.924;2023-06-26T07:13:34;100702.88;;;28.81;37.99
73842;BME280;62184;52.006;5.924;2023-06-26T07:16:01;100703.03;;;28.97;37.56
73842;BME280;62184;52.006;5.924;2023-06-26T07:18:27;100700.41;;;29.13;37.36
73842;BME280;62184;52.006;5.924;2023-06-26T07:20:54;100693.13;;;29.56;37.42
73842;BME280;62184;52.006;5.924;2023-06-26T07:23:20;100697.41;;;29.84;36.14
73842;BME280;62184;52.006;5.924;2023-06-26T07:25:49;100705.00;;;29.90;35.99
73842;BME280;62184;52.006;5.924;2023-06-26T07:28:16;100709.81;;;29.88;35.93
73842;BME280;62184;52.006;5.924;2023-06-26T07:30:42;100702.94;;;29.92;35.94
73842;BME280;62184;52.006;5.924;2023-06-26T07:33:09;100715.63;;;30.11;35.22
73842;BME280;62184;52.006;5.924;2023-06-26T07:35:35;100724.59;;;30.13;35.42
73842;BME280;62184;52.006;5.924;2023-06-26T07:38:02;100731.72;;;29.98;35.50
73842;BME280;62184;52.006;5.924;2023-06-26T07:40:28;100722.56;;;29.89;35.56
73842;BME280;62184;52.006;5.924;2023-06-26T07:42:57;100726.97;;;30.08;35.68
73842;BME280;62184;52.006;5.924;2023-06-26T07:45:24;100744.06;;;30.20;35.33
73842;BME280;62184;52.006;5.924;2023-06-26T07:47:50;100723.19;;;30.09;35.20
73842;BME280;62184;52.006;5.924;2023-06-26T07:50:17;100721.47;;;30.08;35.41
73842;BME280;62184;52.006;5.924;2023-06-26T07:52:43;100708.41;;;30.18;35.09
73842;BME280;62184;52.006;5.924;2023-06-26T07:55:10;100726.16;;;30.24;35.41
73842;BME280;62184;52.006;5.924;2023-06-26T07:57:36;100734.13;;;30.43;34.93
73842;BME280;62184;52.006;5.924;2023-06-26T08:00:07;100737.28;;;30.73;34.64
73842;BME280;62184;52.006;5.924;2023-06-26T08:02:34;100733.50;;;30.90;34.33
73842;BME280;62184;52.006;5.924;2023-06-26T08:05:01;100749.19;;;30.81;34.25
73842;BME280;62184;52.006;5.924;2023-06-26T08:07:27;100754.66;;;30.57;34.61
73842;BME280;62184;52.006;5.924;2023-06-26T08:09:54;100750.69;;;30.51;34.30
73842;BME280;62184;52.006;5.924;2023-06-26T08:12:20;100751.22;;;30.47;34.59
73842;BME280;62184;52.006;5.924;2023-06-26T08:14:47;100744.88;;;30.62;34.80
73842;BME280;62184;52.006;5.924;2023-06-26T08:17:16;100757.84;;;30.94;34.20
73842;BME280;62184;52.006;5.924;2023-06-26T08:19:42;100744.53;;;31.14;34.06
73842;BME280;62184;52.006;5.924;2023-06-26T08:22:09;100749.75;;;31.17;33.85
73842;BME280;62184;52.006;5.924;2023-06-26T08:24:35;100742.63;;;31.15;33.65
73842;BME280;62184;52.006;5.924;2023-06-26T08:27:02;100755.09;;;31.27;33.46
73842;BME280;62184;52.006;5.924;2023-06-26T08:29:28;100756.44;;;31.39;33.16
73842;BME280;62184;52.006;5.924;2023-06-26T08:31:55;100745.75;;;31.52;32.74
73842;BME280;62184;52.006;5.924;2023-06-26T08:34:24;100750.53;;;31.58;32.44
73842;BME280;62184;52.006;5.924;2023-06-26T08:36:51;100760.25;;;31.46;32.57
73842;BME280;62184;52.006;5.924;2023-06-26T08:39:17;100771.66;;;31.19;32.74
73842;BME280;62184;52.006;5.924;2023-06-26T08:41:44;100787.00;;;31.05;33.36
73842;BME280;62184;52.006;5.924;2023-06-26T08:44:10;100772.66;;;30.69;33.36
73842;BME280;62184;52.006;5.924;2023-06-26T08:46:37;100769.72;;;30.62;34.54
73842;BME280;62184;52.006;5.924;2023-06-26T08:49:11;100775.59;;;30.92;34.34
73842;BME280;62184;52.006;5.924;2023-06-26T08:51:51;100781.66;;;31.36;33.91
73842;BME280;62184;52.006;5.924;2023-06-26T08:54:30;100780.91;;;31.74;32.82
73842;BME280;62184;52.006;5.924;2023-06-26T08:57:03;100774.19;;;31.77;31.73
73842;BME280;62184;52.006;5.924;2023-06-26T08:59:33;100782.81;;;31.58;31.61
73842;BME280;62184;52.006;5.924;2023-06-26T09:02:00;100785.63;;;31.25;31.92
73842;BME280;62184;52.006;5.924;2023-06-26T09:04:27;100784.03;;;30.90;32.79
73842;BME280;62184;52.006;5.924;2023-06-26T09:06:56;100794.03;;;31.08;32.83
73842;BME280;62184;52.006;5.924;2023-06-26T09:09:23;100789.06;;;31.44;32.23
73842;BME280;62184;52.006;5.924;2023-06-26T09:11:49;100789.72;;;31.78;31.43
73842;BME280;62184;52.006;5.924;2023-06-26T09:14:16;100792.59;;;32.01;31.42
73842;BME280;62184;52.006;5.924;2023-06-26T09:16:43;100793.53;;;31.77;31.18
73842;BME280;62184;52.006;5.924;2023-06-26T09:19:10;100800.41;;;31.81;31.54
73842;BME280;62184;52.006;5.924;2023-06-26T09:21:38;100804.81;;;32.06;30.33
73842;BME280;62184;52.006;5.924;2023-06-26T09:24:08;100810.13;;;32.24;30.58
73842;BME280;62184;52.006;5.924;2023-06-26T09:26:37;100807.16;;;32.34;29.11
73842;BME280;62184;52.006;5.924;2023-06-26T09:29:04;100819.47;;;32.15;29.31
73842;BME280;62184;52.006;5.924;2023-06-26T09:31:32;100818.25;;;32.17;29.80
73842;BME280;62184;52.006;5.924;2023-06-26T09:33:59;100817.88;;;32.37;29.12
73842;BME280;62184;52.006;5.924;2023-06-26T09:36:28;100821.91;;;32.57;28.46
73842;BME280;62184;52.006;5.924;2023-06-26T09:38:55;100817.38;;;32.64;28.60
73842;BME280;62184;52.006;5.924;2023-06-26T09:41:25;100819.06;;;32.65;28.23
73842;BME280;62184;52.006;5.924;2023-06-26T09:43:51;100832.09;;;32.57;28.61
73842;BME280;62184;52.006;5.924;2023-06-26T09:46:24;100824.25;;;32.76;28.07
73842;BME280;62184;52.006;5.924;2023-06-26T09:48:58;100827.47;;;32.88;26.66
73842;BME280;62184;52.006;5.924;2023-06-26T09:51:25;100836.28;;;32.83;26.77
73842;BME280;62184;52.006;5.924;2023-06-26T09:53:51;100834.84;;;32.96;26.95
73842;BME280;62184;52.006;5.924;2023-06-26T09:56:18;100835.69;;;33.19;26.34
73842;BME280;62184;52.006;5.924;2023-06-26T09:58:47;100847.03;;;33.32;26.79
73842;BME280;62184;52.006;5.924;2023-06-26T10:01:15;100845.66;;;33.51;25.75
73842;BME280;62184;52.006;5.924;2023-06-26T10:03:43;100853.03;;;33.58;25.96
73842;BME280;62184;52.006;5.924;2023-06-26T10:06:11;100854.44;;;33.40;25.45
73842;BME280;62184;52.006;5.924;2023-06-26T10:08:39;100851.97;;;32.91;25.24
73842;BME280;62184;52.006;5.924;2023-06-26T10:11:08;100855.28;;;32.56;25.93
73842;BME280;62184;52.006;5.924;2023-06-26T10:13:50;100866.47;;;32.23;26.55
73842;BME280;62184;52.006;5.924;2023-06-26T10:16:23;100857.72;;;31.95;26.99
73842;BME280;62184;52.006;5.924;2023-06-26T10:18:55;100852.38;;;31.86;27.60
73842;BME280;62184;52.006;5.924;2023-06-26T10:21:26;100872.22;;;31.97;27.16
73842;BME280;62184;52.006;5.924;2023-06-26T10:23:56;100865.44;;;32.08;26.79
73842;BME280;62184;52.006;5.924;2023-06-26T10:26:24;100874.63;;;31.92;26.39
73842;BME280;62184;52.006;5.924;2023-06-26T10:28:55;100878.06;;;32.10;25.91
73842;BME280;62184;52.006;5.924;2023-06-26T10:31:26;100871.78;;;32.33;25.91
73842;BME280;62184;52.006;5.924;2023-06-26T10:33:55;100865.63;;;32.62;25.28
73842;BME280;62184;52.006;5.924;2023-06-26T10:36:28;100874.88;;;32.85;25.70
73842;BME280;62184;52.006;5.924;2023-06-26T10:38:57;100880.22;;;32.86;25.30
73842;BME280;62184;52.006;5.924;2023-06-26T10:41:27;100871.50;;;32.98;25.09
73842;BME280;62184;52.006;5.924;2023-06-26T10:44:11;100877.56;;;33.24;24.49
73842;BME280;62184;52.006;5.924;2023-06-26T10:46:51;100876.69;;;33.23;24.20
73842;BME280;62184;52.006;5.924;2023-06-26T10:49:19;100881.22;;;33.16;24.43
73842;BME280;62184;52.006;5.924;2023-06-26T10:51:47;100876.31;;;33.04;24.50
73842;BME280;62184;52.006;5.924;2023-06-26T10:54:16;100876.06;;;32.82;24.41
73842;BME280;62184;52.006;5.924;2023-06-26T10:56:45;100878.56;;;32.69;24.23
73842;BME280;62184;52.006;5.924;2023-06-26T10:59:24;100882.91;;;32.64;24.80
73842;BME280;62184;52.006;5.924;2023-06-26T11:01:56;100879.72;;;32.83;24.07
73842;BME280;62184;52.006;5.924;2023-06-26T11:04:38;100882.19;;;33.01;23.64
73842;BME280;62184;52.006;5.924;2023-06-26T11:07:16;100895.63;;;33.12;23.40
73842;BME280;62184;52.006;5.924;2023-06-26T11:09:55;100898.22;;;33.13;23.76
73842;BME280;62184;52.006;5.924;2023-06-26T11:12:38;100904.78;;;33.12;23.96
73842;BME280;62184;52.006;5.924;2023-06-26T11:15:13;100892.09;;;32.95;24.14
73842;BME280;62184;52.006;5.924;2023-06-26T11:17:41;100897.34;;;32.82;24.16
73842;BME280;62184;52.006;5.924;2023-06-26T11:20:10;100904.50;;;32.68;24.51
73842;BME280;62184;52.006;5.924;2023-06-26T11:22:40;100918.69;;;32.57;24.77
73842;BME280;62184;52.006;5.924;2023-06-26T11:25:08;100908.38;;;32.51;24.78
73842;BME280;62184;52.006;5.924;2023-06-26T11:27:38;100913.44;;;32.15;24.52
73842;BME280;62184;52.006;5.924;2023-06-26T11:30:07;100912.31;;;31.85;25.16
73842;BME280;62184;52.006;5.924;2023-06-26T11:32:37;100908.31;;;31.96;24.15
73842;BME280;62184;52.006;5.924;2023-06-26T11:35:05;100915.34;;;32.23;24.21
73842;BME280;62184;52.006;5.924;2023-06-26T11:37:33;100920.84;;;32.47;23.86
73842;BME280;62184;52.006;5.924;2023-06-26T11:39:59;100935.16;;;32.50;23.75
73842;BME280;62184;52.006;5.924;2023-06-26T11:42:41;100931.34;;;32.51;24.01
73842;BME280;62184;52.006;5.924;2023-06-26T11:45:09;100938.66;;;32.44;24.27
73842;BME280;62184;52.006;5.924;2023-06-26T11:47:39;100948.88;;;32.28;24.50
73842;BME280;62184;52.006;5.924;2023-06-26T11:50:05;100955.44;;;32.27;24.75
73842;BME280;62184;52.006;5.924;2023-06-26T11:52:32;100958.38;;;32.33;24.72
73842;BME280;62184;52.006;5.924;2023-06-26T11:54:59;100964.75;;;32.17;25.18
73842;BME280;62184;52.006;5.924;2023-06-26T11:57:26;100959.94;;;32.11;25.36
73842;BME280;62184;52.006;5.924;2023-06-26T11:59:52;100969.28;;;31.94;25.19
73842;BME280;62184;52.006;5.924;2023-06-26T12:02:21;100954.41;;;32.20;25.40
73842;BME280;62184;52.006;5.924;2023-06-26T12:04:50;100961.25;;;32.48;24.85
73842;BME280;62184;52.006;5.924;2023-06-26T12:07:17;100956.22;;;32.60;23.99
73842;BME280;62184;52.006;5.924;2023-06-26T12:09:46;100965.25;;;32.45;23.63
73842;BME280;62184;52.006;5.924;2023-06-26T12:12:16;100972.38;;;32.15;23.82
73842;BME280;62184;52.006;5.924;2023-06-26T12:14:44;100979.16;;;31.89;24.66
73842;BME280;62184;52.006;5.924;2023-06-26T12:17:12;100976.88;;;31.84;24.59
73842;BME280;62184;52.006;5.924;2023-06-26T12:19:43;100974.97;;;31.93;25.06
73842;BME280;62184;52.006;5.924;2023-06-26T12:22:13;100975.84;;;31.93;24.83
73842;BME280;62184;52.006;5.924;2023-06-26T12:24:40;100978.44;;;32.03;24.79
73842;BME280;62184;52.006;5.924;2023-06-26T12:27:10;100989.13;;;32.06;24.37
73842;BME280;62184;52.006;5.924;2023-06-26T12:29:39;100985.69;;;32.12;24.95
73842;BME280;62184;52.006;5.924;2023-06-26T12:32:10;100986.53;;;32.37;24.30
73842;BME280;62184;52.006;5.924;2023-06-26T12:34:38;100987.81;;;32.65;23.54
73842;BME280;62184;52.006;5.924;2023-06-26T12:37:06;100982.47;;;32.80;23.10
73842;BME280;62184;52.006;5.924;2023-06-26T12:39:50;100985.09;;;32.57;23.62
73842;BME280;62184;52.006;5.924;2023-06-26T12:42:18;100990.31;;;32.44;23.70
73842;BME280;62184;52.006;5.924;2023-06-26T12:44:46;100978.78;;;32.24;23.83
73842;BME280;62184;52.006;5.924;2023-06-26T12:47:14;100984.13;;;32.17;24.31
73842;BME280;62184;52.006;5.924;2023-06-26T12:49:41;100989.16;;;32.30;23.50
73842;BME280;62184;52.006;5.924;2023-06-26T12:52:11;100977.56;;;32.10;23.81
73842;BME280;62184;52.006;5.924;2023-06-26T12:54:40;100976.16;;;32.06;24.46